sensor_id;sensor_type;location;lat;lon;timestamp;pressure;altitude;pressure_sealevel;temperature;humidity
41102;BME280;26845;50.190;19.178;2023-10-31T00:00:19;97278.36;;;12.23;94.99
41102;BME280;26845;50.190;19.178;2023-10-31T00:03:25;97271.11;;;12.30;95.03
41102;BME280;26845;50.190;19.178;2023-10-31T00:06:31;97271.59;;;12.41;95.25
41102;BME280;26845;50.190;19.178;2023-10-31T00:09:37;97266.00;;;12.52;95.17
41102;BME280;26845;50.190;19.178;2023-10-31T00:12:43;97254.77;;;12.64;95.03
41102;BME280;26845;50.190;19.178;2023-10-31T00:15:48;97247.84;;;12.68;94.88
41102;BME280;26845;50.190;19.178;2023-10-31T00:18:54;97238.92;;;12.73;95.00
41102;BME280;26845;50.190;19.178;2023-10-31T00:22:00;97225.40;;;12.73;94.59
41102;BME280;26845;50.190;19.178;2023-10-31T00:25:06;97222.09;;;12.71;94.69
41102;BME280;26845;50.190;19.178;2023-10-31T00:28:12;97206.83;;;12.68;94.58
41102;BME280;26845;50.190;19.178;2023-10-31T00:31:18;97201.85;;;12.66;94.55
41102;BME280;26845;50.190;19.178;2023-10-31T00:34:24;97193.86;;;12.60;94.67
41102;BME280;26845;50.190;19.178;2023-10-31T00:37:30;97189.39;;;12.59;94.79
41102;BME280;26845;50.190;19.178;2023-10-31T00:40:36;97179.86;;;12.70;95.22
41102;BME280;26845;50.190;19.178;2023-10-31T00:43:42;97175.08;;;12.87;94.90
41102;BME280;26845;50.190;19.178;2023-10-31T00:46:47;97175.73;;;12.94;94.68
41102;BME280;26845;50.190;19.178;2023-10-31T00:49:53;97166.74;;;13.08;94.67
41102;BME280;26845;50.190;19.178;2023-10-31T00:52:59;97151.91;;;13.21;94.39
41102;BME280;26845;50.190;19.178;2023-10-31T00:56:05;97155.11;;;13.41;94.04
41102;BME280;26845;50.190;19.178;2023-10-31T00:59:11;97150.09;;;13.75;93.70
41102;BME280;26845;50.190;19.178;2023-10-31T01:02:17;97138.86;;;14.08;93.22
41102;BME280;26845;50.190;19.178;2023-10-31T01:05:23;97128.25;;;14.28;93.00
41102;BME280;26845;50.190;19.178;2023-10-31T01:08:29;97118.48;;;14.34;92.14
41102;BME280;26845;50.190;19.178;2023-10-31T01:11:35;97116.69;;;14.44;92.13
41102;BME280;26845;50.190;19.178;2023-10-31T01:14:41;97118.36;;;14.51;91.49
41102;BME280;26845;50.190;19.178;2023-10-31T01:17:47;97114.74;;;14.71;91.23
41102;BME280;26845;50.190;19.178;2023-10-31T01:20:53;97107.40;;;14.90;90.78
41102;BME280;26845;50.190;19.178;2023-10-31T01:23:59;97106.83;;;15.06;90.09
41102;BME280;26845;50.190;19.178;2023-10-31T01:27:05;97104.48;;;15.24;90.10
41102;BME280;26845;50.190;19.178;2023-10-31T01:30:12;97099.55;;;15.30;89.77
41102;BME280;26845;50.190;19.178;2023-10-31T01:33:18;97102.55;;;15.33;89.65
41102;BME280;26845;50.190;19.178;2023-10-31T01:36:25;97096.35;;;15.29;89.01
41102;BME280;26845;50.190;19.178;2023-10-31T01:39:29;97094.91;;;15.28;88.79
41102;BME280;26845;50.190;19.178;2023-10-31T01:42:35;97082.35;;;15.29;89.05
41102;BME280;26845;50.190;19.178;2023-10-31T01:45:41;97076.17;;;15.24;88.79
41102;BME280;26845;50.190;19.178;2023-10-31T01:48:47;97066.95;;;15.20;88.83
41102;BME280;26845;50.190;19.178;2023-10-31T01:51:53;97067.67;;;15.22;88.76
41102;BME280;26845;50.190;19.178;2023-10-31T01:54:59;97059.38;;;15.24;88.62
41102;BME280;26845;50.190;19.178;2023-10-31T01:58:05;97054.50;;;15.23;88.08
41102;BME280;26845;50.190;19.178;2023-10-31T02:01:11;97038.20;;;15.23;88.29
41102;BME280;26845;50.190;19.178;2023-10-31T02:04:16;97027.70;;;15.20;87.98
41102;BME280;26845;50.190;19.178;2023-10-31T02:07:22;97034.69;;;15.14;87.94
41102;BME280;26845;50.190;19.178;2023-10-31T02:10:28;97022.11;;;15.10;87.88
41102;BME280;26845;50.190;19.178;2023-10-31T02:13:34;97014.05;;;15.10;87.74
41102;BME280;26845;50.190;19.178;2023-10-31T02:16:40;97016.52;;;15.12;87.53
41102;BME280;26845;50.190;19.178;2023-10-31T02:19:46;97018.05;;;15.12;87.50
41102;BME280;26845;50.190;19.178;2023-10-31T02:22:52;97011.18;;;15.13;87.04
41102;BME280;26845;50.190;19.178;2023-10-31T02:25:58;97007.13;;;15.18;87.17
41102;BME280;26845;50.190;19.178;2023-10-31T02:29:04;96994.65;;;15.15;86.98
41102;BME280;26845;50.190;19.178;2023-10-31T02:32:10;96991.09;;;15.11;87.22
41102;BME280;26845;50.190;19.178;2023-10-31T02:35:16;96993.52;;;15.01;86.99
41102;BME280;26845;50.190;19.178;2023-10-31T02:38:22;96990.79;;;14.98;86.64
41102;BME280;26845;50.190;19.178;2023-10-31T02:41:28;96991.61;;;15.02;86.81
41102;BME280;26845;50.190;19.178;2023-10-31T02:44:34;96984.92;;;15.07;86.58
41102;BME280;26845;50.190;19.178;2023-10-31T02:47:40;96973.05;;;15.13;86.02
41102;BME280;26845;50.190;19.178;2023-10-31T02:50:45;96966.79;;;15.24;85.60
41102;BME280;26845;50.190;19.178;2023-10-31T02:53:51;96956.85;;;15.39;85.49
41102;BME280;26845;50.190;19.178;2023-10-31T02:56:58;96943.39;;;15.48;84.94
41102;BME280;26845;50.190;19.178;2023-10-31T03:00:03;96939.52;;;15.59;84.35
41102;BME280;26845;50.190;19.178;2023-10-31T03:03:09;96943.22;;;15.67;84.44
41102;BME280;26845;50.190;19.178;2023-10-31T03:06:15;96950.84;;;15.71;84.32
41102;BME280;26845;50.190;19.178;2023-10-31T03:09:21;96973.56;;;15.70;83.63
41102;BME280;26845;50.190;19.178;2023-10-31T03:12:27;96986.05;;;15.69;83.78
41102;BME280;26845;50.190;19.178;2023-10-31T03:15:33;96981.42;;;15.72;83.89
41102;BME280;26845;50.190;19.178;2023-10-31T03:18:39;96978.46;;;15.74;83.82
41102;BME280;26845;50.190;19.178;2023-10-31T03:21:45;96962.15;;;15.78;83.16
41102;BME280;26845;50.190;19.178;2023-10-31T03:24:51;96951.69;;;15.85;82.83
41102;BME280;26845;50.190;19.178;2023-10-31T03:27:56;96961.58;;;16.01;82.10
41102;BME280;26845;50.190;19.178;2023-10-31T03:31:03;96953.90;;;16.18;82.16
41102;BME280;26845;50.190;19.178;2023-10-31T03:34:08;96957.61;;;16.31;80.81
41102;BME280;26845;50.190;19.178;2023-10-31T03:37:14;96961.05;;;16.48;80.54
41102;BME280;26845;50.190;19.178;2023-10-31T03:40:20;96952.63;;;16.60;80.61
41102;BME280;26845;50.190;19.178;2023-10-31T03:43:26;96944.53;;;16.70;79.94
41102;BME280;26845;50.190;19.178;2023-10-31T03:46:32;96934.20;;;16.83;80.15
41102;BME280;26845;50.190;19.178;2023-10-31T03:49:39;96934.35;;;16.94;78.68
41102;BME280;26845;50.190;19.178;2023-10-31T03:52:43;96937.20;;;17.02;78.90
41102;BME280;26845;50.190;19.178;2023-10-31T03:55:49;96937.59;;;17.07;78.16
41102;BME280;26845;50.190;19.178;2023-10-31T03:58:55;96932.05;;;17.08;78.11
41102;BME280;26845;50.190;19.178;2023-10-31T04:02:01;96928.04;;;17.13;77.72
41102;BME280;26845;50.190;19.178;2023-10-31T04:05:07;96928.04;;;17.14;77.84
41102;BME280;26845;50.190;19.178;2023-10-31T04:08:12;96918.00;;;17.13;77.49
41102;BME280;26845;50.190;19.178;2023-10-31T04:11:18;96913.92;;;17.13;77.92
41102;BME280;26845;50.190;19.178;2023-10-31T04:14:24;96900.31;;;17.08;77.69
41102;BME280;26845;50.190;19.178;2023-10-31T04:17:30;96902.01;;;17.05;77.50
41102;BME280;26845;50.190;19.178;2023-10-31T04:20:36;96899.13;;;17.03;77.73
41102;BME280;26845;50.190;19.178;2023-10-31T04:23:41;96897.30;;;16.93;77.04
41102;BME280;26845;50.190;19.178;2023-10-31T04:26:47;96892.02;;;16.94;77.54
41102;BME280;26845;50.190;19.178;2023-10-31T04:29:53;96903.65;;;16.90;75.74
41102;BME280;26845;50.190;19.178;2023-10-31T04:32:59;96903.41;;;16.90;76.87
41102;BME280;26845;50.190;19.178;2023-10-31T04:36:05;96896.77;;;16.83;77.28
41102;BME280;26845;50.190;19.178;2023-10-31T04:39:11;96896.77;;;16.76;76.48
41102;BME280;26845;50.190;19.178;2023-10-31T04:42:16;96898.55;;;16.78;76.31
41102;BME280;26845;50.190;19.178;2023-10-31T04:45:22;96900.14;;;16.79;75.89
41102;BME280;26845;50.190;19.178;2023-10-31T04:48:28;96894.70;;;16.78;76.42
41102;BME280;26845;50.190;19.178;2023-10-31T04:51:34;96895.17;;;16.77;76.19
41102;BME280;26845;50.190;19.178;2023-10-31T04:54:39;96896.11;;;16.73;75.98
41102;BME280;26845;50.190;19.178;2023-10-31T04:57:45;96889.15;;;16.70;76.23
41102;BME280;26845;50.190;19.178;2023-10-31T05:00:51;96890.53;;;16.65;76.18
41102;BME280;26845;50.190;19.178;2023-10-31T05:03:57;96895.42;;;16.61;76.09
41102;BME280;26845;50.190;19.178;2023-10-31T05:07:03;96893.10;;;16.56;75.28
41102;BME280;26845;50.190;19.178;2023-10-31T05:10:09;96891.35;;;16.56;75.31
41102;BME280;26845;50.190;19.178;2023-10-31T05:13:14;96892.46;;;16.58;75.09
41102;BME280;26845;50.190;19.178;2023-10-31T05:16:20;96903.49;;;16.64;75.06
41102;BME280;26845;50.190;19.178;2023-10-31T05:19:07;96908.23;;;16.70;75.00
41102;BME280;26845;50.190;19.178;2023-10-31T05:22:13;96912.25;;;16.79;74.97
41102;BME280;26845;50.190;19.178;2023-10-31T05:25:19;96913.04;;;16.90;74.79
41102;BME280;26845;50.190;19.178;2023-10-31T05:28:25;96911.73;;;16.93;74.69
41102;BME280;26845;50.190;19.178;2023-10-31T05:31:31;96913.42;;;16.92;74.29
41102;BME280;26845;50.190;19.178;2023-10-31T05:34:37;96918.22;;;16.94;74.13
41102;BME280;26845;50.190;19.178;2023-10-31T05:37:43;96916.07;;;16.92;73.21
41102;BME280;26845;50.190;19.178;2023-10-31T05:40:49;96907.95;;;16.99;73.61
41102;BME280;26845;50.190;19.178;2023-10-31T05:43:55;96913.86;;;17.07;72.65
41102;BME280;26845;50.190;19.178;2023-10-31T05:47:01;96915.02;;;17.21;72.20
41102;BME280;26845;50.190;19.178;2023-10-31T05:50:06;96915.51;;;17.40;69.49
41102;BME280;26845;50.190;19.178;2023-10-31T05:53:12;96917.29;;;17.71;70.14
41102;BME280;26845;50.190;19.178;2023-10-31T05:56:18;96920.20;;;17.86;69.60
41102;BME280;26845;50.190;19.178;2023-10-31T05:59:24;96930.23;;;18.00;69.16
41102;BME280;26845;50.190;19.178;2023-10-31T06:02:29;96936.20;;;18.08;68.48
41102;BME280;26845;50.190;19.178;2023-10-31T06:05:35;96945.49;;;18.21;67.85
41102;BME280;26845;50.190;19.178;2023-10-31T06:08:41;96947.27;;;18.31;67.55
41102;BME280;26845;50.190;19.178;2023-10-31T06:11:47;96946.52;;;18.36;68.75
41102;BME280;26845;50.190;19.178;2023-10-31T06:14:53;96942.77;;;18.32;68.34
41102;BME280;26845;50.190;19.178;2023-10-31T06:17:59;96942.94;;;18.32;68.65
41102;BME280;26845;50.190;19.178;2023-10-31T06:21:05;96951.70;;;18.30;68.39
41102;BME280;26845;50.190;19.178;2023-10-31T06:24:11;96950.61;;;18.26;68.22
41102;BME280;26845;50.190;19.178;2023-10-31T06:27:17;96948.52;;;18.28;67.99
41102;BME280;26845;50.190;19.178;2023-10-31T06:30:23;96958.86;;;18.30;66.47
41102;BME280;26845;50.190;19.178;2023-10-31T06:33:29;96962.20;;;18.34;66.76
41102;BME280;26845;50.190;19.178;2023-10-31T06:36:35;96968.04;;;18.35;66.85
41102;BME280;26845;50.190;19.178;2023-10-31T06:39:41;96966.46;;;18.35;64.60
41102;BME280;26845;50.190;19.178;2023-10-31T06:42:46;96967.02;;;18.33;66.56
41102;BME280;26845;50.190;19.178;2023-10-31T06:45:52;96970.81;;;18.32;66.03
41102;BME280;26845;50.190;19.178;2023-10-31T06:48:58;96986.19;;;18.28;65.80
41102;BME280;26845;50.190;19.178;2023-10-31T06:52:04;96989.77;;;18.30;66.47
41102;BME280;26845;50.190;19.178;2023-10-31T06:55:10;96994.30;;;18.28;66.48
41102;BME280;26845;50.190;19.178;2023-10-31T06:58:16;96993.77;;;18.23;66.46
41102;BME280;26845;50.190;19.178;2023-10-31T07:01:21;96996.83;;;18.22;66.46
41102;BME280;26845;50.190;19.178;2023-10-31T07:04:27;97001.35;;;18.17;66.57
41102;BME280;26845;50.190;19.178;2023-10-31T07:07:33;96995.27;;;18.12;64.42
41102;BME280;26845;50.190;19.178;2023-10-31T07:10:39;97001.91;;;18.03;63.81
41102;BME280;26845;50.190;19.178;2023-10-31T07:13:44;96998.70;;;18.04;64.33
41102;BME280;26845;50.190;19.178;2023-10-31T07:16:50;96999.84;;;18.02;63.31
41102;BME280;26845;50.190;19.178;2023-10-31T07:19:55;97002.09;;;17.99;63.26
41102;BME280;26845;50.190;19.178;2023-10-31T07:23:01;97002.17;;;18.01;64.20
41102;BME280;26845;50.190;19.178;2023-10-31T07:25:49;97015.52;;;17.97;62.26
41102;BME280;26845;50.190;19.178;2023-10-31T07:28:55;97019.07;;;17.93;63.66
41102;BME280;26845;50.190;19.178;2023-10-31T07:32:00;97023.35;;;17.90;61.50
41102;BME280;26845;50.190;19.178;2023-10-31T07:35:06;97029.79;;;17.85;64.11
41102;BME280;26845;50.190;19.178;2023-10-31T07:38:12;97030.29;;;17.79;63.34
41102;BME280;26845;50.190;19.178;2023-10-31T07:41:18;97027.39;;;17.73;63.18
41102;BME280;26845;50.190;19.178;2023-10-31T07:44:23;97032.64;;;17.66;63.11
41102;BME280;26845;50.190;19.178;2023-10-31T07:47:29;97035.00;;;17.57;63.63
41102;BME280;26845;50.190;19.178;2023-10-31T07:50:35;97040.64;;;17.47;63.41
41102;BME280;26845;50.190;19.178;2023-10-31T07:53:41;97035.83;;;17.47;63.96
41102;BME280;26845;50.190;19.178;2023-10-31T07:56:47;97045.46;;;17.44;63.45
41102;BME280;26845;50.190;19.178;2023-10-31T07:59:53;97050.20;;;17.41;63.82
41102;BME280;26845;50.190;19.178;2023-10-31T08:02:59;97050.06;;;17.39;63.55
41102;BME280;26845;50.190;19.178;2023-10-31T08:06:05;97065.14;;;17.37;63.98
41102;BME280;26845;50.190;19.178;2023-10-31T08:09:11;97066.98;;;17.35;63.65
41102;BME280;26845;50.190;19.178;2023-10-31T08:12:17;97078.70;;;17.32;63.47
41102;BME280;26845;50.190;19.178;2023-10-31T08:15:22;97083.05;;;17.28;63.52
41102;BME280;26845;50.190;19.178;2023-10-31T08:18:28;97083.36;;;17.26;63.94
41102;BME280;26845;50.190;19.178;2023-10-31T08:21:34;97090.42;;;17.21;63.65
41102;BME280;26845;50.190;19.178;2023-10-31T08:24:40;97076.22;;;17.18;63.85
41102;BME280;26845;50.190;19.178;2023-10-31T08:27:46;97074.07;;;17.17;64.33
41102;BME280;26845;50.190;19.178;2023-10-31T08:30:52;97069.66;;;17.13;64.14
41102;BME280;26845;50.190;19.178;2023-10-31T08:33:58;97079.84;;;17.12;63.67
41102;BME280;26845;50.190;19.178;2023-10-31T08:37:03;97084.02;;;17.10;64.61
41102;BME280;26845;50.190;19.178;2023-10-31T08:40:09;97090.44;;;17.09;64.44
41102;BME280;26845;50.190;19.178;2023-10-31T08:43:15;97100.92;;;17.06;64.71
41102;BME280;26845;50.190;19.178;2023-10-31T08:46:21;97097.34;;;17.05;64.47
41102;BME280;26845;50.190;19.178;2023-10-31T08:49:27;97099.34;;;17.01;64.80
41102;BME280;26845;50.190;19.178;2023-10-31T08:52:32;97111.45;;;16.97;64.50
41102;BME280;26845;50.190;19.178;2023-10-31T08:55:38;97118.81;;;16.92;65.29
41102;BME280;26845;50.190;19.178;2023-10-31T08:58:44;97118.00;;;16.83;65.51
41102;BME280;26845;50.190;19.178;2023-10-31T09:01:50;97119.44;;;16.77;65.23
41102;BME280;26845;50.190;19.178;2023-10-31T09:04:56;97119.34;;;16.74;65.60
41102;BME280;26845;50.190;19.178;2023-10-31T09:08:02;97124.67;;;16.71;66.12
41102;BME280;26845;50.190;19.178;2023-10-31T09:11:08;97128.52;;;16.67;65.92
41102;BME280;26845;50.190;19.178;2023-10-31T09:14:14;97138.30;;;16.66;66.00
41102;BME280;26845;50.190;19.178;2023-10-31T09:17:20;97139.03;;;16.66;66.06
41102;BME280;26845;50.190;19.178;2023-10-31T09:20:26;97151.67;;;16.62;66.21
41102;BME280;26845;50.190;19.178;2023-10-31T09:23:32;97163.69;;;16.59;66.06
41102;BME280;26845;50.190;19.178;2023-10-31T09:26:41;97169.20;;;16.54;66.58
41102;BME280;26845;50.190;19.178;2023-10-31T09:29:43;97174.71;;;16.49;66.41
41102;BME280;26845;50.190;19.178;2023-10-31T09:32:49;97180.00;;;16.48;66.79
41102;BME280;26845;50.190;19.178;2023-10-31T09:35:55;97181.91;;;16.44;67.02
41102;BME280;26845;50.190;19.178;2023-10-31T09:39:01;97195.35;;;16.41;67.22
41102;BME280;26845;50.190;19.178;2023-10-31T09:42:07;97196.38;;;16.35;67.84
41102;BME280;26845;50.190;19.178;2023-10-31T09:45:13;97193.45;;;16.28;68.25
41102;BME280;26845;50.190;19.178;2023-10-31T09:48:19;97193.58;;;16.20;68.63
41102;BME280;26845;50.190;19.178;2023-10-31T09:51:25;97196.13;;;16.16;69.46
41102;BME280;26845;50.190;19.178;2023-10-31T09:54:31;97192.61;;;16.17;69.54
41102;BME280;26845;50.190;19.178;2023-10-31T09:57:36;97191.02;;;16.19;69.80
41102;BME280;26845;50.190;19.178;2023-10-31T10:00:42;97187.73;;;16.21;70.27
41102;BME280;26845;50.190;19.178;2023-10-31T10:03:48;97181.63;;;16.16;70.72
41102;BME280;26845;50.190;19.178;2023-10-31T10:07:01;97175.86;;;16.14;71.07
41102;BME280;26845;50.190;19.178;2023-10-31T10:10:09;97188.10;;;16.15;71.23
41102;BME280;26845;50.190;19.178;2023-10-31T10:13:12;97182.63;;;16.09;71.83
41102;BME280;26845;50.190;19.178;2023-10-31T10:16:31;97174.27;;;16.03;72.91
41102;BME280;26845;50.190;19.178;2023-10-31T10:19:36;97180.69;;;16.05;73.05
41102;BME280;26845;50.190;19.178;2023-10-31T10:22:43;97179.81;;;16.22;73.02
41102;BME280;26845;50.190;19.178;2023-10-31T10:25:52;97175.52;;;16.50;72.40
41102;BME280;26845;50.190;19.178;2023-10-31T10:28:57;97175.80;;;16.63;72.00
41102;BME280;26845;50.190;19.178;2023-10-31T10:32:06;97173.65;;;16.69;71.71
41102;BME280;26845;50.190;19.178;2023-10-31T10:35:12;97167.05;;;16.84;71.46
41102;BME280;26845;50.190;19.178;2023-10-31T10:38:18;97172.98;;;16.88;71.19
41102;BME280;26845;50.190;19.178;2023-10-31T10:41:25;97184.05;;;16.80;70.98
41102;BME280;26845;50.190;19.178;2023-10-31T10:44:33;97192.82;;;16.73;71.21
41102;BME280;26845;50.190;19.178;2023-10-31T10:47:39;97192.63;;;16.68;71.27
41102;BME280;26845;50.190;19.178;2023-10-31T10:50:45;97201.20;;;16.60;71.58
41102;BME280;26845;50.190;19.178;2023-10-31T10:53:57;97215.66;;;16.52;71.50
41102;BME280;26845;50.190;19.178;2023-10-31T10:57:09;97219.16;;;16.45;71.88
41102;BME280;26845;50.190;19.178;2023-10-31T11:00:09;97218.59;;;16.42;72.00
41102;BME280;26845;50.190;19.178;2023-10-31T11:03:15;97205.93;;;16.43;72.40
41102;BME280;26845;50.190;19.178;2023-10-31T11:06:21;97190.17;;;16.49;72.55
41102;BME280;26845;50.190;19.178;2023-10-31T11:09:26;97202.86;;;16.55;72.06
41102;BME280;26845;50.190;19.178;2023-10-31T11:12:33;97220.47;;;16.52;71.78
41102;BME280;26845;50.190;19.178;2023-10-31T11:15:38;97220.45;;;16.48;72.32
41102;BME280;26845;50.190;19.178;2023-10-31T11:18:44;97193.81;;;16.56;72.52
41102;BME280;26845;50.190;19.178;2023-10-31T11:22:08;97193.83;;;16.62;72.45
41102;BME280;26845;50.190;19.178;2023-10-31T11:24:59;97203.10;;;16.57;72.64
41102;BME280;26845;50.190;19.178;2023-10-31T11:28:14;97189.12;;;16.44;72.80
41102;BME280;26845;50.190;19.178;2023-10-31T11:31:19;97186.58;;;16.30;73.57
41102;BME280;26845;50.190;19.178;2023-10-31T11:34:34;97179.98;;;16.23;73.90
41102;BME280;26845;50.190;19.178;2023-10-31T11:37:32;97184.45;;;16.17;73.96
41102;BME280;26845;50.190;19.178;2023-10-31T11:40:57;97201.48;;;16.15;74.36
41102;BME280;26845;50.190;19.178;2023-10-31T11:43:52;97212.92;;;16.11;74.68
41102;BME280;26845;50.190;19.178;2023-10-31T11:46:58;97221.08;;;16.10;74.67
41102;BME280;26845;50.190;19.178;2023-10-31T11:50:04;97218.77;;;16.13;74.90
41102;BME280;26845;50.190;19.178;2023-10-31T11:53:13;97210.85;;;16.16;74.81
41102;BME280;26845;50.190;19.178;2023-10-31T11:56:16;97217.27;;;16.17;75.12
41102;BME280;26845;50.190;19.178;2023-10-31T11:59:22;97218.57;;;16.20;75.03
41102;BME280;26845;50.190;19.178;2023-10-31T12:02:27;97200.63;;;16.22;74.77
41102;BME280;26845;50.190;19.178;2023-10-31T12:05:33;97187.88;;;16.17;75.29
41102;BME280;26845;50.190;19.178;2023-10-31T12:08:29;97192.94;;;16.20;75.49
41102;BME280;26845;50.190;19.178;2023-10-31T12:11:37;97192.70;;;16.19;75.06
41102;BME280;26845;50.190;19.178;2023-10-31T12:14:39;97183.84;;;16.10;75.02
41102;BME280;26845;50.190;19.178;2023-10-31T12:17:45;97171.23;;;16.03;75.20
41102;BME280;26845;50.190;19.178;2023-10-31T12:20:33;97177.98;;;15.93;75.59
41102;BME280;26845;50.190;19.178;2023-10-31T12:23:34;97175.36;;;15.81;75.71
41102;BME280;26845;50.190;19.178;2023-10-31T12:26:35;97173.39;;;15.74;75.79
41102;BME280;26845;50.190;19.178;2023-10-31T12:29:41;97167.25;;;15.79;76.03
41102;BME280;26845;50.190;19.178;2023-10-31T12:32:53;97162.31;;;15.82;76.27
41102;BME280;26845;50.190;19.178;2023-10-31T12:35:59;97157.50;;;15.79;76.12
41102;BME280;26845;50.190;19.178;2023-10-31T12:39:05;97150.01;;;15.71;76.28
41102;BME280;26845;50.190;19.178;2023-10-31T12:42:10;97137.54;;;15.64;76.41
41102;BME280;26845;50.190;19.178;2023-10-31T12:45:17;97143.35;;;15.59;76.66
41102;BME280;26845;50.190;19.178;2023-10-31T12:48:23;97141.15;;;15.55;76.74
41102;BME280;26845;50.190;19.178;2023-10-31T12:51:28;97142.48;;;15.49;77.05
41102;BME280;26845;50.190;19.178;2023-10-31T12:54:34;97154.35;;;15.43;77.24
41102;BME280;26845;50.190;19.178;2023-10-31T12:57:39;97159.11;;;15.38;77.39
41102;BME280;26845;50.190;19.178;2023-10-31T13:00:45;97150.59;;;15.33;77.27
41102;BME280;26845;50.190;19.178;2023-10-31T13:03:50;97168.88;;;15.29;77.39
41102;BME280;26845;50.190;19.178;2023-10-31T13:06:56;97182.27;;;15.24;77.76
41102;BME280;26845;50.190;19.178;2023-10-31T13:10:02;97191.67;;;15.19;77.91
41102;BME280;26845;50.190;19.178;2023-10-31T13:13:08;97193.61;;;15.13;77.92
41102;BME280;26845;50.190;19.178;2023-10-31T13:16:14;97207.79;;;15.08;78.12
41102;BME280;26845;50.190;19.178;2023-10-31T13:19:20;97210.27;;;15.00;78.51
41102;BME280;26845;50.190;19.178;2023-10-31T13:22:26;97202.23;;;14.93;78.53
41102;BME280;26845;50.190;19.178;2023-10-31T13:25:31;97205.69;;;14.89;79.12
41102;BME280;26845;50.190;19.178;2023-10-31T13:28:37;97202.64;;;14.88;78.91
41102;BME280;26845;50.190;19.178;2023-10-31T13:31:43;97198.52;;;14.82;79.33
41102;BME280;26845;50.190;19.178;2023-10-31T13:34:48;97195.64;;;14.74;79.55
41102;BME280;26845;50.190;19.178;2023-10-31T13:37:54;97201.98;;;14.64;80.79
41102;BME280;26845;50.190;19.178;2023-10-31T13:41:00;97199.98;;;14.51;81.99
41102;BME280;26845;50.190;19.178;2023-10-31T13:43:46;97198.63;;;14.38;82.53
41102;BME280;26845;50.190;19.178;2023-10-31T13:46:48;97192.38;;;14.23;83.46
41102;BME280;26845;50.190;19.178;2023-10-31T13:49:54;97183.59;;;14.11;84.21
41102;BME280;26845;50.190;19.178;2023-10-31T13:53:00;97201.89;;;14.00;83.89
41102;BME280;26845;50.190;19.178;2023-10-31T13:56:03;97204.80;;;13.91;83.59
41102;BME280;26845;50.190;19.178;2023-10-31T13:59:09;97196.99;;;13.86;84.31
41102;BME280;26845;50.190;19.178;2023-10-31T14:02:15;97206.39;;;13.80;85.53
41102;BME280;26845;50.190;19.178;2023-10-31T14:05:21;97223.26;;;13.70;86.45
41102;BME280;26845;50.190;19.178;2023-10-31T14:08:26;97237.00;;;13.62;87.27
41102;BME280;26845;50.190;19.178;2023-10-31T14:11:32;97233.33;;;13.51;86.36
41102;BME280;26845;50.190;19.178;2023-10-31T14:14:38;97218.94;;;13.44;86.80
41102;BME280;26845;50.190;19.178;2023-10-31T14:17:44;97222.73;;;13.33;89.08
41102;BME280;26845;50.190;19.178;2023-10-31T14:20:50;97230.07;;;13.24;88.09
41102;BME280;26845;50.190;19.178;2023-10-31T14:23:55;97235.34;;;13.16;89.77
41102;BME280;26845;50.190;19.178;2023-10-31T14:27:01;97237.52;;;13.04;90.47
41102;BME280;26845;50.190;19.178;2023-10-31T14:30:07;97245.92;;;12.97;90.39
41102;BME280;26845;50.190;19.178;2023-10-31T14:33:13;97240.90;;;12.94;91.16
41102;BME280;26845;50.190;19.178;2023-10-31T14:36:19;97241.64;;;12.86;92.65
41102;BME280;26845;50.190;19.178;2023-10-31T14:39:25;97235.04;;;12.77;92.55
41102;BME280;26845;50.190;19.178;2023-10-31T14:42:31;97240.27;;;12.72;95.73
41102;BME280;26845;50.190;19.178;2023-10-31T14:45:37;97249.23;;;12.67;94.38
41102;BME280;26845;50.190;19.178;2023-10-31T14:48:42;97246.12;;;12.62;97.19
41102;BME280;26845;50.190;19.178;2023-10-31T14:51:48;97241.65;;;12.57;95.90
41102;BME280;26845;50.190;19.178;2023-10-31T14:54:54;97240.02;;;12.55;94.71
41102;BME280;26845;50.190;19.178;2023-10-31T14:58:00;97241.98;;;12.54;95.75
41102;BME280;26845;50.190;19.178;2023-10-31T15:01:06;97242.33;;;12.51;95.49
41102;BME280;26845;50.190;19.178;2023-10-31T15:04:11;97250.64;;;12.48;96.91
41102;BME280;26845;50.190;19.178;2023-10-31T15:07:17;97244.29;;;12.45;95.95
41102;BME280;26845;50.190;19.178;2023-10-31T15:10:23;97233.61;;;12.45;95.76
41102;BME280;26845;50.190;19.178;2023-10-31T15:13:29;97235.39;;;12.43;95.14
41102;BME280;26845;50.190;19.178;2023-10-31T15:16:34;97224.55;;;12.42;96.17
41102;BME280;26845;50.190;19.178;2023-10-31T15:19:40;97252.42;;;12.38;97.52
41102;BME280;26845;50.190;19.178;2023-10-31T15:22:55;97268.73;;;12.35;98.38
41102;BME280;26845;50.190;19.178;2023-10-31T15:26:00;97259.70;;;12.33;98.56
41102;BME280;26845;50.190;19.178;2023-10-31T15:29:06;97261.84;;;12.28;99.67
41102;BME280;26845;50.190;19.178;2023-10-31T15:32:12;97271.97;;;12.26;99.74
41102;BME280;26845;50.190;19.178;2023-10-31T15:35:06;97272.02;;;12.21;99.62
41102;BME280;26845;50.190;19.178;2023-10-31T15:38:14;97271.16;;;12.18;99.84
41102;BME280;26845;50.190;19.178;2023-10-31T15:41:20;97259.63;;;12.14;99.59
41102;BME280;26845;50.190;19.178;2023-10-31T15:44:26;97260.65;;;12.10;99.27
41102;BME280;26845;50.190;19.178;2023-10-31T15:47:33;97260.91;;;12.07;99.37
41102;BME280;26845;50.190;19.178;2023-10-31T15:50:39;97261.16;;;12.05;99.25
41102;BME280;26845;50.190;19.178;2023-10-31T15:53:45;97268.04;;;12.02;98.52
41102;BME280;26845;50.190;19.178;2023-10-31T15:56:51;97272.52;;;12.04;98.54
41102;BME280;26845;50.190;19.178;2023-10-31T15:59:57;97271.73;;;12.04;97.94
41102;BME280;26845;50.190;19.178;2023-10-31T16:03:06;97274.14;;;12.05;97.87
41102;BME280;26845;50.190;19.178;2023-10-31T16:06:12;97271.26;;;12.07;97.63
41102;BME280;26845;50.190;19.178;2023-10-31T16:09:18;97277.39;;;12.07;97.67